createdAt,value
2022-08-07T00:00:03.439Z,9.719463
2022-08-07T00:01:44.439Z,9.719389
2022-08-07T00:02:37.060Z,9.719414
2022-08-07T00:03:03.279Z,9.719430
2022-08-07T00:04:03.389Z,9.719279
2022-08-07T00:05:04.217Z,9.719440
2022-08-07T00:06:02.231Z,9.719404
2022-08-07T00:07:05.107Z,9.719473
2022-08-07T00:08:03.209Z,9.719562
2022-08-07T00:09:16.816Z,9.719500
2022-08-07T00:10:25.498Z,9.719483
2022-08-07T00:11:06.389Z,9.719372
2022-08-07T00:12:02.179Z,9.719407
2022-08-07T00:13:03.161Z,9.719420
2022-08-07T00:14:02.154Z,9.719460
2022-08-07T00:15:02.404Z,9.719330
2022-08-07T00:16:02.140Z,9.719418
2022-08-07T00:17:02.627Z,9.719439
2022-08-07T00:18:02.114Z,9.719126
2022-08-07T00:19:02.105Z,9.719269
2022-08-07T00:20:03.258Z,9.719182
2022-08-07T00:21:03.473Z,9.719200
2022-08-07T00:22:03.319Z,9.719370
2022-08-07T00:23:02.045Z,9.719292
2022-08-07T00:24:02.095Z,9.719259
2022-08-07T00:25:02.754Z,9.719422
2022-08-07T00:26:13.277Z,9.718981
2022-08-07T00:27:07.477Z,9.719572
2022-08-07T00:28:03.017Z,9.719237
2022-08-07T00:29:02.012Z,9.719552
2022-08-07T00:30:02.011Z,9.720113
2022-08-07T00:31:01.984Z,9.720593
2022-08-07T00:32:01.976Z,9.719750
2022-08-07T00:33:33.909Z,9.719192
2022-08-07T00:34:01.958Z,9.719066
2022-08-07T00:35:01.941Z,9.719060
2022-08-07T00:36:01.950Z,9.719253
2022-08-07T00:37:01.950Z,9.719279
2022-08-07T00:38:01.917Z,9.719331
2022-08-07T00:39:01.960Z,9.719167
2022-08-07T00:40:01.908Z,9.719213
2022-08-07T00:41:01.893Z,9.719250
2022-08-07T00:42:05.054Z,9.719237
2022-08-07T00:43:01.875Z,9.719193
2022-08-07T00:44:02.997Z,9.719188
2022-08-07T00:45:02.845Z,9.719264
2022-08-07T00:46:02.241Z,9.719455
2022-08-07T00:47:01.837Z,9.719364
2022-08-07T00:48:07.636Z,9.719342
2022-08-07T00:49:02.083Z,9.719277
2022-08-07T00:50:20.775Z,9.719232
2022-08-07T00:51:02.990Z,9.719284
2022-08-07T00:52:01.823Z,9.719301
2022-08-07T00:53:01.791Z,9.719229
2022-08-07T00:54:01.747Z,9.719205
2022-08-07T00:55:04.646Z,9.719298
2022-08-07T00:56:03.935Z,9.719239
2022-08-07T00:57:01.818Z,9.719273
2022-08-07T00:58:01.714Z,9.719358
2022-08-07T00:59:02.720Z,9.719332
2022-08-07T01:00:01.701Z,9.719411
2022-08-07T01:01:01.755Z,9.719219
2022-08-07T01:02:01.742Z,9.719265
2022-08-07T01:03:01.691Z,9.719287
2022-08-07T01:04:01.644Z,9.719357
2022-08-07T01:05:01.661Z,9.719356
2022-08-07T01:06:01.640Z,9.719292
2022-08-07T01:07:01.622Z,9.719295
2022-08-07T01:08:01.645Z,9.719320
2022-08-07T01:09:01.637Z,9.719292
2022-08-07T01:10:05.936Z,9.719290
2022-08-07T01:12:04.775Z,9.719308
2022-08-07T01:12:10.079Z,9.719238
2022-08-07T01:13:02.763Z,9.719212
2022-08-07T01:14:01.579Z,9.719255
2022-08-07T01:15:03.887Z,9.719274
2022-08-07T01:16:05.900Z,9.719267
2022-08-07T01:17:04.252Z,9.719226
2022-08-07T01:18:01.533Z,9.719189
2022-08-07T01:19:01.548Z,9.719204
2022-08-07T01:20:01.521Z,9.719217
2022-08-07T01:21:01.498Z,9.719230
2022-08-07T01:22:03.205Z,9.719187
2022-08-07T01:23:12.028Z,9.719230
2022-08-07T01:24:01.497Z,9.719236
2022-08-07T01:25:02.412Z,9.719260
2022-08-07T01:26:03.445Z,9.719229
2022-08-07T01:27:01.473Z,9.719225
2022-08-07T01:28:01.443Z,9.719228
2022-08-07T01:29:01.423Z,9.719310
2022-08-07T01:30:01.421Z,9.719255
2022-08-07T01:31:01.403Z,9.719254
2022-08-07T01:32:01.418Z,9.719136
2022-08-07T01:33:02.201Z,9.719200
2022-08-07T01:34:01.411Z,9.719216
2022-08-07T01:35:01.380Z,9.719228
2022-08-07T01:36:06.053Z,9.719249
2022-08-07T01:37:01.355Z,9.719355
2022-08-07T01:38:01.340Z,9.719341
2022-08-07T01:39:01.397Z,9.719322
2022-08-07T01:40:01.352Z,9.719325
2022-08-07T01:41:01.299Z,9.719308
2022-08-07T01:42:36.618Z,9.719278
2022-08-07T01:43:03.354Z,9.719400
2022-08-07T01:44:01.686Z,9.719418
2022-08-07T01:45:01.286Z,9.719352
2022-08-07T01:46:01.251Z,9.719315
2022-08-07T01:48:16.411Z,9.719306
2022-08-07T01:48:21.064Z,9.719275
2022-08-07T01:49:02.451Z,9.719365
2022-08-07T01:50:01.238Z,9.719163
2022-08-07T01:51:24.418Z,9.719312
2022-08-07T01:52:04.886Z,9.719356
2022-08-07T01:53:01.181Z,9.719411
2022-08-07T01:54:12.706Z,9.719254
2022-08-07T01:55:02.166Z,9.719273
2022-08-07T01:56:01.166Z,9.719361
2022-08-07T01:57:02.149Z,9.719254
2022-08-07T01:58:06.718Z,9.719330
2022-08-07T01:59:02.148Z,9.719288
2022-08-07T02:00:01.125Z,9.719133
2022-08-07T02:01:25.708Z,9.718872
2022-08-07T02:02:04.378Z,9.718795
2022-08-07T02:03:19.249Z,9.718748
2022-08-07T02:04:02.159Z,9.718773
2022-08-07T02:05:01.057Z,9.718820
2022-08-07T02:06:02.077Z,9.718932
2022-08-07T02:07:01.050Z,9.719094
2022-08-07T02:08:01.097Z,9.719112
2022-08-07T02:09:01.034Z,9.718929
2022-08-07T02:10:01.021Z,9.718843
2022-08-07T02:11:01.011Z,9.718947
2022-08-07T02:12:04.825Z,9.719053
2022-08-07T02:13:01.128Z,9.719105
2022-08-07T02:14:02.639Z,9.719168
2022-08-07T02:15:01.072Z,9.719272
2022-08-07T02:16:00.967Z,9.719225
2022-08-07T02:17:00.950Z,9.719156
2022-08-07T02:18:00.939Z,9.719059
2022-08-07T02:19:00.958Z,9.718931
2022-08-07T02:20:05.551Z,9.718952
2022-08-07T02:21:06.465Z,9.719154
2022-08-07T02:22:00.912Z,9.719291
2022-08-07T02:23:00.917Z,9.719093
2022-08-07T02:24:01.610Z,9.719086
2022-08-07T02:25:00.879Z,9.719203
2022-08-07T02:26:30.460Z,9.719105
2022-08-07T02:27:02.700Z,9.719119
2022-08-07T02:28:00.851Z,9.719263
2022-08-07T02:29:00.846Z,9.719228
2022-08-07T02:30:03.989Z,9.719211
2022-08-07T02:31:27.963Z,9.719131
2022-08-07T02:32:01.814Z,9.719061
2022-08-07T02:33:09.553Z,9.719206
2022-08-07T02:34:03.462Z,9.719260
2022-08-07T02:35:01.131Z,9.719218
2022-08-07T02:36:30.568Z,9.719257
2022-08-07T02:37:01.770Z,9.719166
2022-08-07T02:38:01.753Z,9.719218
2022-08-07T02:39:00.806Z,9.719194
2022-08-07T02:40:02.136Z,9.719014
2022-08-07T02:41:01.770Z,9.719145
2022-08-07T02:42:00.731Z,9.719211
2022-08-07T02:43:00.698Z,9.719275
2022-08-07T02:44:00.680Z,9.719189
2022-08-07T02:45:00.678Z,9.719287
2022-08-07T02:46:02.752Z,9.719037
2022-08-07T02:47:00.857Z,9.718980
2022-08-07T02:48:01.644Z,9.718983
2022-08-07T02:49:03.192Z,9.719195
2022-08-07T02:50:00.676Z,9.719163
2022-08-07T02:51:00.632Z,9.719186
2022-08-07T02:52:00.634Z,9.719105
2022-08-07T02:53:00.822Z,9.719005
2022-08-07T02:54:00.585Z,9.718996
2022-08-07T02:55:00.577Z,9.719034
2022-08-07T02:56:04.195Z,9.719081
2022-08-07T02:57:00.571Z,9.719028
2022-08-07T02:58:00.545Z,9.719036
2022-08-07T02:59:00.544Z,9.719223
2022-08-07T03:00:01.206Z,9.719342
2022-08-07T03:01:00.587Z,9.719151
2022-08-07T03:02:01.343Z,9.719214
2022-08-07T03:03:00.529Z,9.719268
2022-08-07T03:04:03.214Z,9.719194
2022-08-07T03:05:04.900Z,9.719295
2022-08-07T03:06:00.472Z,9.719192
2022-08-07T03:07:03.426Z,9.719611
2022-08-07T03:08:08.151Z,9.719231
2022-08-07T03:09:01.473Z,9.719238
2022-08-07T03:10:00.435Z,9.719156
2022-08-07T03:11:00.423Z,9.719323
2022-08-07T03:12:02.906Z,9.719049
2022-08-07T03:13:00.402Z,9.719201
2022-08-07T03:14:01.912Z,9.719171
2022-08-07T03:15:02.395Z,9.719219
2022-08-07T03:16:01.373Z,9.719040
2022-08-07T03:17:00.365Z,9.719090
2022-08-07T03:18:00.357Z,9.719282
2022-08-07T03:19:00.349Z,9.719266
2022-08-07T03:20:00.346Z,9.719233
2022-08-07T03:21:00.322Z,9.718897
2022-08-07T03:22:00.317Z,9.718595
2022-08-07T03:23:00.307Z,9.718802
2022-08-07T03:24:20.298Z,9.719065
2022-08-07T03:25:02.331Z,9.719311
2022-08-07T03:26:00.275Z,9.719043
2022-08-07T03:27:00.277Z,9.719008
2022-08-07T03:28:09.462Z,9.719042
2022-08-07T03:29:01.245Z,9.719425
2022-08-07T03:30:00.254Z,9.719311
2022-08-07T03:31:00.227Z,9.719305
2022-08-07T03:32:00.239Z,9.719367
2022-08-07T03:33:01.019Z,9.719227
2022-08-07T03:34:00.190Z,9.718846
2022-08-07T03:35:16.918Z,9.718878
2022-08-07T03:36:01.178Z,9.719056
2022-08-07T03:37:00.190Z,9.718906
2022-08-07T03:38:01.179Z,9.718862
2022-08-07T03:39:05.602Z,9.719017
2022-08-07T03:40:15.127Z,9.719045
2022-08-07T03:41:02.180Z,9.719022
2022-08-07T03:42:00.703Z,9.718961
2022-08-07T03:43:00.114Z,9.718903
2022-08-07T03:44:00.096Z,9.718889
2022-08-07T03:45:00.089Z,9.718934
2022-08-07T03:46:00.098Z,9.719015
2022-08-07T03:47:13.821Z,9.719081
2022-08-07T03:48:00.087Z,9.718947
2022-08-07T03:49:02.753Z,9.719085
2022-08-07T03:50:00.048Z,9.719090
2022-08-07T03:51:00.039Z,9.719190
2022-08-07T03:52:01.225Z,9.719264
2022-08-07T03:53:00.024Z,9.719210
2022-08-07T03:54:33.925Z,9.719249
2022-08-07T03:55:06.868Z,9.719229
2022-08-07T03:56:04.307Z,9.719192
2022-08-07T03:57:07.220Z,9.719230
2022-08-07T03:59:05.551Z,9.719198
2022-08-07T03:59:09.785Z,9.719188
2022-08-07T04:00:01.760Z,9.719172
2022-08-07T04:01:00.518Z,9.719213
2022-08-07T04:01:59.987Z,9.719246
2022-08-07T04:02:59.909Z,9.719270
2022-08-07T04:03:59.904Z,9.719265
2022-08-07T04:04:59.899Z,9.719245
2022-08-07T04:05:59.979Z,9.719279
2022-08-07T04:07:00.089Z,9.719252
2022-08-07T04:07:59.858Z,9.719196
2022-08-07T04:08:59.868Z,9.719270
2022-08-07T04:09:59.835Z,9.719258
2022-08-07T04:12:20.892Z,9.719196
2022-08-07T04:12:26.860Z,9.719212
2022-08-07T04:13:00.806Z,9.719267
2022-08-07T04:14:10.207Z,9.719188
2022-08-07T04:15:00.784Z,9.719185
2022-08-07T04:15:59.859Z,9.719203
2022-08-07T04:16:59.768Z,9.719230
2022-08-07T04:18:58.578Z,9.719210
2022-08-07T04:19:03.832Z,9.719241
2022-08-07T04:20:01.218Z,9.719255
2022-08-07T04:20:59.742Z,9.719238
2022-08-07T04:22:08.681Z,9.719114
2022-08-07T04:23:01.806Z,9.719263
2022-08-07T04:24:07.358Z,9.719146
2022-08-07T04:25:00.997Z,9.719061
2022-08-07T04:25:59.686Z,9.718978
2022-08-07T04:26:59.684Z,9.719167
2022-08-07T04:28:01.013Z,9.719091
2022-08-07T04:28:59.654Z,9.719177
2022-08-07T04:30:02.028Z,9.719100
2022-08-07T04:30:59.644Z,9.719145
2022-08-07T04:32:03.202Z,9.719214
2022-08-07T04:32:59.636Z,9.719186
2022-08-07T04:33:59.609Z,9.719131
2022-08-07T04:34:59.601Z,9.719196
2022-08-07T04:35:59.587Z,9.719196
2022-08-07T04:36:59.591Z,9.719360
2022-08-07T04:38:03.697Z,9.719311
2022-08-07T04:38:59.633Z,9.719312
2022-08-07T04:39:59.571Z,9.719242
2022-08-07T04:40:59.549Z,9.719231
2022-08-07T04:41:59.571Z,9.719261
2022-08-07T04:43:02.159Z,9.719286
2022-08-07T04:44:12.689Z,9.719324
2022-08-07T04:45:03.313Z,9.719389
2022-08-07T04:46:02.023Z,9.719372
2022-08-07T04:47:04.967Z,9.719291
2022-08-07T04:48:04.832Z,9.719290
2022-08-07T04:49:01.611Z,9.719292
2022-08-07T04:50:04.549Z,9.719279
2022-08-07T04:51:00.467Z,9.719245
2022-08-07T04:52:00.050Z,9.719300
2022-08-07T04:52:59.425Z,9.719263
2022-08-07T04:54:05.207Z,9.719237
2022-08-07T04:55:00.414Z,9.719313
2022-08-07T04:58:11.259Z,9.719206
2022-08-07T04:58:12.791Z,9.719306
2022-08-07T04:58:14.864Z,9.719283
2022-08-07T05:00:08.941Z,9.719214
2022-08-07T05:00:12.396Z,9.719206
2022-08-07T05:00:59.426Z,9.719180
2022-08-07T05:01:59.367Z,9.719162
2022-08-07T05:02:59.335Z,9.719162
2022-08-07T05:04:06.421Z,9.719218
2022-08-07T05:04:59.321Z,9.719280
2022-08-07T05:05:59.306Z,9.719233
2022-08-07T05:06:59.307Z,9.719109
2022-08-07T05:07:59.290Z,9.719172
2022-08-07T05:09:01.918Z,9.719266
2022-08-07T05:09:59.266Z,9.719318
2022-08-07T05:11:02.552Z,9.719249
2022-08-07T05:12:02.609Z,9.719186
2022-08-07T05:13:09.871Z,9.719239
2022-08-07T05:14:55.988Z,9.719281
2022-08-07T05:15:03.463Z,9.719279
2022-08-07T05:15:59.215Z,9.719249
2022-08-07T05:17:00.200Z,9.719201
2022-08-07T05:18:00.648Z,9.719264
2022-08-07T05:18:59.177Z,9.719291
2022-08-07T05:19:59.198Z,9.719249
2022-08-07T05:20:59.161Z,9.719213
2022-08-07T05:22:01.783Z,9.719252
2022-08-07T05:22:59.156Z,9.719430
2022-08-07T05:23:59.146Z,9.719468
2022-08-07T05:24:59.556Z,9.719419
2022-08-07T05:26:15.614Z,9.719447
2022-08-07T05:27:00.125Z,9.719440
2022-08-07T05:28:02.554Z,9.719368
2022-08-07T05:29:00.088Z,9.719356
2022-08-07T05:29:59.081Z,9.719462
2022-08-07T05:30:59.092Z,9.719452
2022-08-07T05:31:59.067Z,9.719369
2022-08-07T05:32:59.060Z,9.719441
2022-08-07T05:34:04.431Z,9.719420
2022-08-07T05:35:00.033Z,9.719438
2022-08-07T05:35:59.033Z,9.719426
2022-08-07T05:36:59.018Z,9.719585
2022-08-07T05:38:08.581Z,9.719539
2022-08-07T05:40:05.237Z,9.719548
2022-08-07T05:40:14.282Z,9.719574
2022-08-07T05:41:00.022Z,9.719523
2022-08-07T05:42:01.803Z,9.719458
2022-08-07T05:42:58.970Z,9.719479
2022-08-07T05:44:12.518Z,9.719561
2022-08-07T05:45:14.179Z,9.719585
2022-08-07T05:45:59.949Z,9.719514
2022-08-07T05:47:00.194Z,9.719464
2022-08-07T05:48:01.346Z,9.719618
2022-08-07T05:48:59.559Z,9.719548
2022-08-07T05:49:58.919Z,9.719625
2022-08-07T05:50:58.933Z,9.719700
2022-08-07T05:51:58.880Z,9.719760
2022-08-07T05:52:58.914Z,9.719733
2022-08-07T05:54:13.734Z,9.719837
2022-08-07T05:55:06.771Z,9.719945
2022-08-07T05:56:02.243Z,9.719898
2022-08-07T05:56:58.951Z,9.719719
2022-08-07T05:57:58.853Z,9.719873
2022-08-07T05:58:58.889Z,9.719808
2022-08-07T05:59:58.829Z,9.719515
2022-08-07T06:00:58.803Z,9.719547
2022-08-07T06:01:59.943Z,9.719830
2022-08-07T06:02:58.865Z,9.719463
2022-08-07T06:04:01.050Z,9.719601
2022-08-07T06:04:58.777Z,9.719646
2022-08-07T06:05:58.836Z,9.719490
2022-08-07T06:07:03.617Z,9.719335
2022-08-07T06:08:14.683Z,9.719426
2022-08-07T06:08:59.759Z,9.719426
2022-08-07T06:10:05.526Z,9.719426
2022-08-07T06:11:03.738Z,9.719426
2022-08-07T06:11:59.585Z,9.719426
2022-08-07T06:12:58.800Z,9.719941
2022-08-07T06:14:13.095Z,9.719862
2022-08-07T06:15:05.667Z,9.719358
2022-08-07T06:15:59.735Z,9.719273
2022-08-07T06:16:58.719Z,9.719304
2022-08-07T06:17:59.644Z,9.719284
2022-08-07T06:18:58.665Z,9.719193
2022-08-07T06:20:04.020Z,9.719165
2022-08-07T06:22:14.460Z,9.719283
2022-08-07T06:22:15.158Z,9.719177
2022-08-07T06:23:24.940Z,9.719226
2022-08-07T06:24:46.346Z,9.719264
2022-08-07T06:25:01.531Z,9.719285
2022-08-07T06:25:58.641Z,9.719318
2022-08-07T06:26:58.630Z,9.719406
2022-08-07T06:28:01.936Z,9.719390
2022-08-07T06:28:58.965Z,9.719346
2022-08-07T06:29:58.545Z,9.719270
2022-08-07T06:30:58.675Z,9.719178
2022-08-07T06:31:58.534Z,9.719241
2022-08-07T06:32:58.518Z,9.719291
2022-08-07T06:34:30.592Z,9.719281
2022-08-07T06:34:58.508Z,9.719245
2022-08-07T06:36:06.485Z,9.719237
2022-08-07T06:36:59.496Z,9.719224
2022-08-07T06:37:58.487Z,9.719204
2022-08-07T06:40:13.398Z,9.719199
2022-08-07T06:40:17.882Z,9.719222
2022-08-07T06:40:59.489Z,9.719234
2022-08-07T06:42:02.839Z,9.719305
2022-08-07T06:42:58.437Z,9.719278
2022-08-07T06:44:01.266Z,9.719234
2022-08-07T06:44:58.424Z,9.719238
2022-08-07T06:46:00.992Z,9.719133
2022-08-07T06:47:09.818Z,9.719182
2022-08-07T06:47:59.883Z,9.719247
2022-08-07T06:48:58.405Z,9.719275
2022-08-07T06:49:59.044Z,9.719333
2022-08-07T06:50:58.367Z,9.719345
2022-08-07T06:52:02.874Z,9.719297
2022-08-07T06:52:59.364Z,9.719124
2022-08-07T06:55:28.553Z,9.719303
2022-08-07T06:55:33.325Z,9.719273
2022-08-07T06:56:01.291Z,9.719170
2022-08-07T06:56:58.348Z,9.719139
2022-08-07T06:57:59.256Z,9.719214
2022-08-07T07:00:13.649Z,9.719259
2022-08-07T07:00:17.473Z,9.719069
2022-08-07T07:00:59.304Z,9.719082
2022-08-07T07:01:58.445Z,9.719008
2022-08-07T07:03:00.788Z,9.718925
2022-08-07T07:04:28.376Z,9.719024
2022-08-07T07:05:00.253Z,9.718891
2022-08-07T07:06:05.199Z,9.718771
2022-08-07T07:07:00.972Z,9.718800
2022-08-07T07:07:59.124Z,9.718872
2022-08-07T07:09:00.225Z,9.718764
2022-08-07T07:09:58.239Z,9.718615
2022-08-07T07:10:59.047Z,9.718905
2022-08-07T07:12:08.217Z,9.719067
2022-08-07T07:12:59.193Z,9.719093
2022-08-07T07:14:02.216Z,9.719158
2022-08-07T07:14:58.191Z,9.719123
2022-08-07T07:15:58.159Z,9.719114
2022-08-07T07:16:58.157Z,9.719160
2022-08-07T07:17:58.195Z,9.719146
2022-08-07T07:18:58.154Z,9.719136
2022-08-07T07:19:59.145Z,9.719146
2022-08-07T07:20:59.110Z,9.719093
2022-08-07T07:22:12.010Z,9.719106
2022-08-07T07:24:10.936Z,9.719119
2022-08-07T07:24:11.128Z,9.719139
2022-08-07T07:25:03.088Z,9.719144
2022-08-07T07:26:32.592Z,9.719151
2022-08-07T07:26:59.058Z,9.719149
2022-08-07T07:28:02.791Z,9.719221
2022-08-07T07:29:38.425Z,9.719194
2022-08-07T07:30:08.941Z,9.719153
2022-08-07T07:30:59.015Z,9.719113
2022-08-07T07:31:58.033Z,9.719091
2022-08-07T07:32:58.029Z,9.719090
2022-08-07T07:33:58.060Z,9.719174
2022-08-07T07:34:58.008Z,9.719164
2022-08-07T07:36:12.627Z,9.719219
2022-08-07T07:37:05.451Z,9.719179
2022-08-07T07:38:02.710Z,9.719172
2022-08-07T07:38:59.022Z,9.719199
2022-08-07T07:39:57.997Z,9.719237
2022-08-07T07:41:01.886Z,9.719188
2022-08-07T07:42:09.020Z,9.719178
2022-08-07T07:43:11.606Z,9.719184
2022-08-07T07:44:17.258Z,9.719165
2022-08-07T07:44:58.924Z,9.719227
2022-08-07T07:46:40.314Z,9.719298
2022-08-07T07:47:12.080Z,9.719229
2022-08-07T07:47:59.897Z,9.719209
2022-08-07T07:49:00.237Z,9.719181
2022-08-07T07:50:35.015Z,9.719171
2022-08-07T07:50:58.885Z,9.719180
2022-08-07T07:51:59.768Z,9.719194
2022-08-07T07:52:57.825Z,9.719179
2022-08-07T07:53:57.817Z,9.719189
2022-08-07T07:54:57.804Z,9.719159
2022-08-07T07:56:00.863Z,9.719162
2022-08-07T07:56:57.793Z,9.719171
2022-08-07T07:57:58.813Z,9.719175
2022-08-07T07:58:57.769Z,9.719185
2022-08-07T07:59:57.776Z,9.719246
2022-08-07T08:00:57.780Z,9.719193
2022-08-07T08:02:04.097Z,9.719184
2022-08-07T08:03:04.827Z,9.719207
2022-08-07T08:04:05.827Z,9.719112
2022-08-07T08:04:59.163Z,9.719094
2022-08-07T08:05:57.705Z,9.719224
2022-08-07T08:07:00.661Z,9.719218
2022-08-07T08:08:00.848Z,9.719112
2022-08-07T08:08:57.677Z,9.719004
2022-08-07T08:10:04.919Z,9.719080
2022-08-07T08:10:57.660Z,9.719230
2022-08-07T08:12:02.506Z,9.719255
2022-08-07T08:12:59.718Z,9.719162
2022-08-07T08:13:57.679Z,9.719250
2022-08-07T08:14:57.629Z,9.719242
2022-08-07T08:16:00.730Z,9.719228
2022-08-07T08:16:57.630Z,9.719102
2022-08-07T08:17:58.847Z,9.719097
2022-08-07T08:19:00.309Z,9.719196
2022-08-07T08:20:18.887Z,9.719270
2022-08-07T08:20:58.560Z,9.719229
2022-08-07T08:22:03.373Z,9.719211
2022-08-07T08:22:58.556Z,9.719247
2022-08-07T08:23:57.576Z,9.719255
2022-08-07T08:25:18.630Z,9.719213
2022-08-07T08:26:03.369Z,9.719254
2022-08-07T08:26:58.520Z,9.719322
2022-08-07T08:28:03.567Z,9.719210
2022-08-07T08:28:58.518Z,9.719152
2022-08-07T08:29:57.485Z,9.719184
2022-08-07T08:30:57.514Z,9.719285
2022-08-07T08:31:58.573Z,9.719337
2022-08-07T08:32:58.454Z,9.719185
2022-08-07T08:33:57.915Z,9.719161
2022-08-07T08:34:58.413Z,9.719196
2022-08-07T08:35:57.459Z,9.719284
2022-08-07T08:36:57.978Z,9.719313
2022-08-07T08:38:01.542Z,9.719300
2022-08-07T08:38:57.415Z,9.719275
2022-08-07T08:39:58.736Z,9.719360
2022-08-07T08:40:57.415Z,9.719228
2022-08-07T08:41:59.517Z,9.719198
2022-08-07T08:42:57.369Z,9.719099
2022-08-07T08:43:59.108Z,9.719051
2022-08-07T08:44:57.400Z,9.719139
2022-08-07T08:46:00.868Z,9.719148
2022-08-07T08:46:57.405Z,9.719192
2022-08-07T08:47:57.484Z,9.719205
2022-08-07T08:48:57.381Z,9.719140
2022-08-07T08:50:05.008Z,9.719154
2022-08-07T08:50:58.331Z,9.719166
2022-08-07T08:52:14.480Z,9.719187
2022-08-07T08:52:58.285Z,9.719109
2022-08-07T08:53:57.339Z,9.719122
2022-08-07T08:54:57.325Z,9.719132
2022-08-07T08:55:59.229Z,9.719141
2022-08-07T08:56:57.350Z,9.719135
2022-08-07T08:57:58.267Z,9.719094
2022-08-07T08:58:58.230Z,9.719350
2022-08-07T08:59:57.435Z,9.719431
2022-08-07T09:00:57.253Z,9.719395
2022-08-07T09:01:58.437Z,9.719212
2022-08-07T09:02:57.644Z,9.719244
2022-08-07T09:03:58.225Z,9.719242
2022-08-07T09:04:57.168Z,9.719390
2022-08-07T09:05:57.188Z,9.719458
2022-08-07T09:06:57.158Z,9.719415
2022-08-07T09:07:57.617Z,9.719462
2022-08-07T09:08:57.168Z,9.719395
2022-08-07T09:09:57.441Z,9.719341
2022-08-07T09:10:57.119Z,9.719279
2022-08-07T09:12:02.809Z,9.718899
2022-08-07T09:12:59.102Z,9.719102
2022-08-07T09:13:57.091Z,9.719164
2022-08-07T09:14:58.757Z,9.719241
2022-08-07T09:16:21.764Z,9.719300
2022-08-07T09:16:58.066Z,9.719356
2022-08-07T09:18:01.436Z,9.719251
2022-08-07T09:18:58.393Z,9.719237
2022-08-07T09:19:57.049Z,9.719165
2022-08-07T09:20:58.324Z,9.719276
2022-08-07T09:22:09.682Z,9.719234
2022-08-07T09:24:32.504Z,9.719283
2022-08-07T09:24:33.846Z,9.719284
2022-08-07T09:25:01.527Z,9.719250
2022-08-07T09:25:58.056Z,9.719328
2022-08-07T09:26:57.191Z,9.719274
2022-08-07T09:28:00.028Z,9.719151
2022-08-07T09:30:00.841Z,9.719058
2022-08-07T09:30:05.360Z,9.719286
2022-08-07T09:30:57.968Z,9.719260
2022-08-07T09:31:56.934Z,9.719231
2022-08-07T09:32:56.985Z,9.719423
2022-08-07T09:33:58.226Z,9.719410
2022-08-07T09:34:56.915Z,9.719372
2022-08-07T09:36:03.403Z,9.719305
2022-08-07T09:36:57.889Z,9.719139
2022-08-07T09:37:56.890Z,9.719250
2022-08-07T09:38:56.860Z,9.719183
2022-08-07T09:39:57.911Z,9.719221
2022-08-07T09:40:56.840Z,9.719212
2022-08-07T09:41:59.146Z,9.719198
2022-08-07T09:42:57.827Z,9.719165
2022-08-07T09:44:06.287Z,9.719190
2022-08-07T09:47:20.399Z,9.719361
2022-08-07T09:47:24.875Z,9.719351
2022-08-07T09:47:52.258Z,9.719335
2022-08-07T09:48:02.812Z,9.719140
2022-08-07T09:50:01.623Z,9.719323
2022-08-07T09:50:18.861Z,9.719427
2022-08-07T09:50:56.753Z,9.719462
2022-08-07T09:52:10.428Z,9.719390
2022-08-07T09:52:57.726Z,9.719293
2022-08-07T09:54:00.596Z,9.719324
2022-08-07T09:54:57.773Z,9.719343
2022-08-07T09:56:04.409Z,9.719339
2022-08-07T09:56:57.684Z,9.719328
2022-08-07T09:57:56.688Z,9.719308
2022-08-07T09:58:56.684Z,9.719465
2022-08-07T10:00:00.613Z,9.719650
2022-08-07T10:00:56.714Z,9.719406
2022-08-07T10:01:56.644Z,9.719398
2022-08-07T10:02:56.643Z,9.719365
2022-08-07T10:04:05.692Z,9.719428
2022-08-07T10:04:57.671Z,9.719555
2022-08-07T10:05:59.822Z,9.719457
2022-08-07T10:06:56.947Z,9.719501
2022-08-07T10:07:57.124Z,9.719320
2022-08-07T10:08:56.627Z,9.719442
2022-08-07T10:10:00.196Z,9.719296
2022-08-07T10:11:17.255Z,9.719471
2022-08-07T10:12:01.579Z,9.719239
2022-08-07T10:12:57.546Z,9.719327
2022-08-07T10:14:01.827Z,9.719332
2022-08-07T10:14:56.554Z,9.719218
2022-08-07T10:15:56.518Z,9.719151
2022-08-07T10:16:56.541Z,9.719235
2022-08-07T10:18:01.012Z,9.719247
2022-08-07T10:18:57.518Z,9.719269
2022-08-07T10:19:56.525Z,9.719444
2022-08-07T10:20:56.481Z,9.719252
2022-08-07T10:22:16.282Z,9.719349
2022-08-07T10:22:57.459Z,9.719267
2022-08-07T10:24:06.442Z,9.719329
2022-08-07T10:24:57.594Z,9.719319
2022-08-07T10:25:56.426Z,9.719322
2022-08-07T10:26:56.434Z,9.719250
2022-08-07T10:27:56.416Z,9.719321
2022-08-07T10:28:56.396Z,9.719427
2022-08-07T10:29:56.421Z,9.719273
2022-08-07T10:30:56.380Z,9.719108
2022-08-07T10:31:56.371Z,9.719252
2022-08-07T10:32:59.582Z,9.719368
2022-08-07T10:34:06.351Z,9.719397
2022-08-07T10:34:57.340Z,9.719338
2022-08-07T10:36:08.225Z,9.719503
2022-08-07T10:36:58.328Z,9.719566
2022-08-07T10:38:09.724Z,9.719390
2022-08-07T10:38:57.320Z,9.719405
2022-08-07T10:39:57.496Z,9.719320
2022-08-07T10:40:57.336Z,9.719357
2022-08-07T10:42:09.131Z,9.719356
2022-08-07T10:42:57.265Z,9.719426
2022-08-07T10:44:02.279Z,9.719471
2022-08-07T10:44:57.246Z,9.719296
2022-08-07T10:45:58.028Z,9.719296
2022-08-07T10:46:56.244Z,9.719285
2022-08-07T10:48:02.776Z,9.719262
2022-08-07T10:48:57.206Z,9.719299
2022-08-07T10:49:56.231Z,9.719394
2022-08-07T10:50:56.185Z,9.719397
2022-08-07T10:52:01.507Z,9.719505
2022-08-07T10:52:57.175Z,9.719488
2022-08-07T10:54:00.148Z,9.719465
2022-08-07T10:55:02.059Z,9.719513
2022-08-07T10:55:56.146Z,9.719357
2022-08-07T10:56:56.127Z,9.719321
2022-08-07T10:57:56.564Z,9.719368
2022-08-07T10:58:59.933Z,9.719329
2022-08-07T10:59:56.092Z,9.719440
2022-08-07T11:00:56.641Z,9.719378
2022-08-07T11:02:04.814Z,9.719458
2022-08-07T11:02:56.102Z,9.719308
2022-08-07T11:04:11.027Z,9.719277
2022-08-07T11:04:58.082Z,9.719267
2022-08-07T11:05:56.039Z,9.719320
2022-08-07T11:06:56.027Z,9.719318
2022-08-07T11:07:59.150Z,9.719384
2022-08-07T11:08:56.021Z,9.719370
2022-08-07T11:10:09.504Z,9.719331
2022-08-07T11:11:00.020Z,9.719291
2022-08-07T11:11:59.143Z,9.719189
2022-08-07T11:13:02.163Z,9.719318
2022-08-07T11:14:44.867Z,9.719348
2022-08-07T11:15:00.939Z,9.719284
2022-08-07T11:15:55.953Z,9.719321
2022-08-07T11:17:01.376Z,9.719548
2022-08-07T11:17:56.916Z,9.719380
2022-08-07T11:18:56.918Z,9.719351
2022-08-07T11:19:55.907Z,9.719326
2022-08-07T11:20:55.928Z,9.719423
2022-08-07T11:21:55.883Z,9.719442
2022-08-07T11:22:55.912Z,9.719603
2022-08-07T11:23:55.883Z,9.719559
2022-08-07T11:24:55.855Z,9.719048
2022-08-07T11:25:55.863Z,9.719187
2022-08-07T11:26:56.864Z,9.719538
2022-08-07T11:28:03.222Z,9.719438
2022-08-07T11:28:55.916Z,9.719155
2022-08-07T11:30:18.060Z,9.719501
2022-08-07T11:30:56.804Z,9.719197
2022-08-07T11:31:55.815Z,9.719272
2022-08-07T11:32:55.797Z,9.719528
2022-08-07T11:34:00.249Z,9.719648
2022-08-07T11:34:55.766Z,9.719657
2022-08-07T11:35:59.494Z,9.719989
2022-08-07T11:36:56.323Z,9.720542
2022-08-07T11:37:57.937Z,9.720923
2022-08-07T11:38:56.709Z,9.720333
2022-08-07T11:40:00.341Z,9.720403
2022-08-07T11:40:56.691Z,9.719887
2022-08-07T11:42:02.327Z,9.719773
2022-08-07T11:42:55.683Z,9.719694
2022-08-07T11:44:12.544Z,9.719288